Time;durP1;ratioP1;P1;durP2;ratioP2;P2;SDS_P1;SDS_P2;PMS_P1;PMS_P2;Temp;Humidity;BMP_temperature;BMP_pressure;BME280_temperature;BME280_humidity;BME280_pressure;Samples;Min_cycle;Max_cycle;Signal;HPM_P1;HPM_P2
2023/04/22 00:01:07;;;;;;;5.07;2.47;;;9.90;99.90;;;;;;5035691;28;20198;-46
2023/04/22 00:03:34;;;;;;;4.30;2.80;;;9.90;99.90;;;;;;5018730;28;20196;-45
2023/04/22 00:06:01;;;;;;;5.07;3.23;;;9.90;99.90;;;;;;5028475;28;20235;-48
2023/04/22 00:08:27;;;;;;;7.13;2.73;;;9.90;99.90;;;;;;5012284;28;20199;-50
2023/04/22 00:10:55;;;;;;;5.33;2.67;;;9.90;99.90;;;;;;5023249;28;20199;-50
2023/04/22 00:13:23;;;;;;;4.93;2.87;;;9.90;99.90;;;;;;5045441;28;20196;-46
2023/04/22 00:15:50;;;;;;;2.83;2.63;;;9.80;99.90;;;;;;5048140;28;20207;-49
2023/04/22 00:18:17;;;;;;;3.83;2.97;;;9.80;99.90;;;;;;5026544;28;20224;-46
2023/04/22 00:20:44;;;;;;;3.90;2.17;;;9.80;99.90;;;;;;5025205;28;20188;-50
2023/04/22 00:23:11;;;;;;;4.60;3.10;;;9.80;99.90;;;;;;5005331;28;20215;-47
2023/04/22 00:25:39;;;;;;;6.70;2.43;;;9.80;99.90;;;;;;5038735;28;20218;-49
2023/04/22 00:28:07;;;;;;;6.20;3.10;;;9.80;99.90;;;;;;5032890;28;20212;-50
2023/04/22 00:30:35;;;;;;;3.13;2.87;;;9.80;99.90;;;;;;5031698;28;20286;-45
2023/04/22 00:33:03;;;;;;;2.70;2.50;;;9.80;99.90;;;;;;5035822;28;20207;-44
2023/04/22 00:35:30;;;;;;;3.80;2.30;;;9.80;99.90;;;;;;5026823;28;20212;-49
2023/04/22 00:38:00;;;;;;;5.13;2.80;;;9.80;99.90;;;;;;5031201;28;20276;-49
2023/04/22 00:40:27;;;;;;;2.27;2.07;;;9.90;99.90;;;;;;5020851;28;20940;-50
2023/04/22 00:42:55;;;;;;;3.80;2.33;;;9.80;99.90;;;;;;5047842;28;20205;-48
2023/04/22 00:45:22;;;;;;;3.07;2.73;;;9.80;99.90;;;;;;5030245;28;20284;-48
2023/04/22 00:47:50;;;;;;;2.90;2.60;;;9.80;99.90;;;;;;5035323;28;20199;-46
2023/04/22 00:50:17;;;;;;;9.47;2.53;;;9.80;99.90;;;;;;5011285;28;20208;-48
2023/04/22 00:52:44;;;;;;;3.27;2.53;;;9.80;99.90;;;;;;5026789;28;20254;-48
2023/04/22 00:55:12;;;;;;;5.43;2.60;;;9.80;99.90;;;;;;5022457;28;20253;-51
2023/04/22 00:57:40;;;;;;;4.43;2.33;;;9.70;99.90;;;;;;5023536;28;20223;-53
2023/04/22 01:00:09;;;;;;;6.90;3.03;;;9.80;99.90;;;;;;5039640;28;20686;-51
2023/04/22 01:02:37;;;;;;;3.90;2.80;;;9.80;99.90;;;;;;5026553;28;20246;-45
2023/04/22 01:05:08;;;;;;;3.50;3.20;;;9.80;99.90;;;;;;5016401;28;20765;-49
2023/04/22 01:07:35;;;;;;;2.87;2.43;;;9.80;99.90;;;;;;5027295;28;20359;-46
2023/04/22 01:10:02;;;;;;;4.27;2.83;;;9.80;99.90;;;;;;5016604;28;20587;-48
2023/04/22 01:12:29;;;;;;;4.33;2.70;;;9.80;99.90;;;;;;5020348;28;20206;-46
2023/04/22 01:14:57;;;;;;;3.80;2.77;;;9.80;99.90;;;;;;5037981;28;20298;-48
2023/04/22 01:17:24;;;;;;;2.60;2.40;;;9.80;99.90;;;;;;5030964;28;20278;-46
2023/04/22 01:19:51;;;;;;;2.93;2.60;;;9.70;99.90;;;;;;5025879;28;20227;-46
2023/04/22 01:22:22;;;;;;;3.20;2.70;;;9.70;99.90;;;;;;5039364;28;20274;-45
2023/04/22 01:24:51;;;;;;;3.83;2.30;;;9.70;99.90;;;;;;5019413;28;20223;-48
2023/04/22 01:27:18;;;;;;;5.83;2.83;;;9.70;99.90;;;;;;5036855;28;20276;-48
2023/04/22 01:29:45;;;;;;;2.87;2.63;;;9.70;99.90;;;;;;5026340;28;20267;-48
2023/04/22 01:32:12;;;;;;;4.27;2.57;;;9.80;99.90;;;;;;5029815;28;20198;-47
2023/04/22 01:34:39;;;;;;;3.73;2.57;;;9.70;99.90;;;;;;5024474;28;20944;-45
2023/04/22 01:37:07;;;;;;;3.33;2.77;;;9.70;99.90;;;;;;5034073;28;20215;-51
2023/04/22 01:39:35;;;;;;;3.60;3.30;;;9.80;99.90;;;;;;5001844;28;23006;-46
2023/04/22 01:42:03;;;;;;;3.90;2.60;;;9.80;99.90;;;;;;5040248;28;20195;-46
2023/04/22 01:44:30;;;;;;;3.13;2.83;;;9.80;99.90;;;;;;5024319;28;20218;-46
2023/04/22 01:46:57;;;;;;;5.70;3.00;;;9.80;99.90;;;;;;5029216;28;20981;-47
2023/04/22 01:49:24;;;;;;;3.77;2.83;;;9.80;99.90;;;;;;5024137;28;20196;-49
2023/04/22 01:51:51;;;;;;;4.47;3.13;;;9.70;99.90;;;;;;5025900;28;20211;-49
2023/04/22 01:54:20;;;;;;;3.17;2.87;;;9.70;99.90;;;;;;5037432;28;20215;-53
2023/04/22 01:56:50;;;;;;;3.40;3.10;;;9.70;99.90;;;;;;5017415;28;20217;-46
2023/04/22 01:59:19;;;;;;;6.93;3.20;;;9.70;99.90;;;;;;5022191;28;20307;-52
2023/04/22 02:01:46;;;;;;;3.70;2.97;;;9.70;99.90;;;;;;5025623;28;20192;-46
2023/04/22 02:04:12;;;;;;;4.10;3.10;;;9.70;99.90;;;;;;5033099;28;20219;-49
2023/04/22 02:06:41;;;;;;;5.13;3.03;;;9.70;99.90;;;;;;5022864;28;20347;-47
2023/04/22 02:09:08;;;;;;;3.77;3.30;;;9.70;99.90;;;;;;5036389;28;20199;-52
2023/04/22 02:11:34;;;;;;;4.70;3.10;;;9.70;99.90;;;;;;5013456;28;20724;-50
2023/04/22 02:14:04;;;;;;;4.93;3.20;;;9.70;99.90;;;;;;5027732;28;20724;-52
2023/04/22 02:16:32;;;;;;;3.50;3.20;;;9.70;99.90;;;;;;5026078;28;20207;-43
2023/04/22 02:19:00;;;;;;;3.27;2.97;;;9.70;99.90;;;;;;5029697;28;20212;-48
2023/04/22 02:21:28;;;;;;;4.77;3.43;;;9.70;99.90;;;;;;5025579;28;20230;-42
2023/04/22 02:23:55;;;;;;;6.13;3.10;;;9.60;99.90;;;;;;5017525;28;20303;-42
2023/04/22 02:26:22;;;;;;;4.00;3.60;;;9.60;99.90;;;;;;5004554;28;20211;-48
2023/04/22 02:28:49;;;;;;;3.43;3.13;;;9.70;99.90;;;;;;5023571;28;20192;-48
2023/04/22 02:31:16;;;;;;;5.27;3.40;;;9.60;99.90;;;;;;5029042;28;20203;-46
2023/04/22 02:33:44;;;;;;;5.00;3.67;;;9.60;99.90;;;;;;5035802;28;20271;-43
2023/04/22 02:36:11;;;;;;;4.53;3.53;;;9.60;99.90;;;;;;5023592;28;20275;-48
2023/04/22 02:38:38;;;;;;;4.07;3.33;;;9.60;99.90;;;;;;5029107;28;20234;-44
2023/04/22 02:41:05;;;;;;;4.73;3.40;;;9.60;99.90;;;;;;5029647;28;20184;-46
2023/04/22 02:43:32;;;;;;;6.63;3.80;;;9.60;99.90;;;;;;5015053;28;20222;-44
2023/04/22 02:45:59;;;;;;;4.30;3.53;;;9.60;99.90;;;;;;5025992;28;20230;-42
2023/04/22 02:48:26;;;;;;;3.90;3.60;;;9.60;99.90;;;;;;5035974;28;20890;-46
2023/04/22 02:50:55;;;;;;;4.13;3.70;;;9.70;99.90;;;;;;5024786;28;20215;-46
2023/04/22 02:53:22;;;;;;;3.60;3.13;;;9.70;99.90;;;;;;5014154;28;20196;-51
2023/04/22 02:55:51;;;;;;;5.53;3.67;;;9.70;99.90;;;;;;5023742;28;20231;-51
2023/04/22 02:58:18;;;;;;;3.97;3.67;;;9.70;99.90;;;;;;5001743;28;20296;-43
2023/04/22 03:00:45;;;;;;;4.30;3.80;;;9.70;99.90;;;;;;5030971;28;20199;-52
2023/04/22 03:03:13;;;;;;;5.33;3.97;;;9.60;99.90;;;;;;5031532;28;20199;-42
2023/04/22 03:05:41;;;;;;;5.77;3.80;;;9.60;99.90;;;;;;5036121;28;20215;-48
2023/04/22 03:08:09;;;;;;;6.87;4.40;;;9.60;99.90;;;;;;5024723;28;20211;-49
2023/04/22 03:10:37;;;;;;;6.07;3.70;;;9.60;99.90;;;;;;5010003;28;20307;-47
2023/04/22 03:13:03;;;;;;;6.57;3.80;;;9.60;99.90;;;;;;5005895;28;20203;-43
2023/04/22 03:15:30;;;;;;;3.90;3.50;;;9.60;99.90;;;;;;5040315;28;20269;-42
2023/04/22 03:17:58;;;;;;;4.27;3.70;;;9.70;99.90;;;;;;5025339;28;20680;-50
2023/04/22 03:20:24;;;;;;;6.20;3.90;;;9.70;99.90;;;;;;5035007;28;20199;-43
2023/04/22 03:22:53;;;;;;;4.20;3.80;;;9.70;99.90;;;;;;5041474;28;20204;-54
2023/04/22 03:25:22;;;;;;;5.33;4.03;;;9.70;99.90;;;;;;5021619;28;20288;-44
2023/04/22 03:27:52;;;;;;;6.57;3.93;;;9.80;99.90;;;;;;5030875;28;20213;-52
2023/04/22 03:30:19;;;;;;;6.53;4.07;;;9.80;99.90;;;;;;5042506;28;21048;-43
2023/04/22 03:32:47;;;;;;;5.30;4.17;;;9.70;99.90;;;;;;5034001;28;20426;-52
2023/04/22 03:35:21;;;;;;;7.13;4.03;;;9.70;99.90;;;;;;5034575;28;20556;-45
2023/04/22 03:37:50;;;;;;;5.03;4.23;;;9.70;99.90;;;;;;5021544;28;20671;-51
2023/04/22 03:40:24;;;;;;;4.90;4.37;;;9.70;99.90;;;;;;5025009;28;20215;-43
2023/04/22 03:42:51;;;;;;;4.77;4.27;;;9.70;99.90;;;;;;5027313;28;20250;-54
2023/04/22 03:45:20;;;;;;;4.33;3.93;;;9.70;99.90;;;;;;5049533;28;20222;-51
2023/04/22 03:47:55;;;;;;;5.43;4.07;;;9.70;99.90;;;;;;5025057;28;20211;-52
2023/04/22 03:50:28;;;;;;;5.03;4.63;;;9.70;99.90;;;;;;5030689;28;20203;-41
2023/04/22 03:52:56;;;;;;;4.70;4.30;;;9.70;99.90;;;;;;5028190;28;20199;-51
2023/04/22 03:55:24;;;;;;;4.80;4.40;;;9.70;99.90;;;;;;5034200;28;20211;-45
2023/04/22 03:57:53;;;;;;;6.67;4.47;;;9.70;99.90;;;;;;5016034;28;20216;-52
2023/04/22 04:00:21;;;;;;;6.27;4.23;;;9.70;99.90;;;;;;5024785;28;20223;-43
2023/04/22 04:02:59;;;;;;;6.20;4.30;;;9.70;99.90;;;;;;5019297;28;20861;-43
2023/04/22 04:05:27;;;;;;;5.20;4.13;;;9.70;99.90;;;;;;5018120;28;20231;-43
2023/04/22 04:07:55;;;;;;;5.30;4.77;;;9.70;99.90;;;;;;5023244;28;20664;-46
2023/04/22 04:10:24;;;;;;;6.50;4.67;;;9.70;99.90;;;;;;5025244;28;20333;-43
2023/04/22 04:12:53;;;;;;;5.87;4.47;;;9.70;99.90;;;;;;5016182;28;20668;-46
2023/04/22 04:15:22;;;;;;;4.53;4.13;;;9.70;99.90;;;;;;5004564;28;20239;-43
2023/04/22 04:17:55;;;;;;;5.37;4.80;;;9.60;99.90;;;;;;5023783;28;20838;-49
2023/04/22 04:20:24;;;;;;;4.60;4.20;;;9.60;99.90;;;;;;5026811;28;20226;-47
2023/04/22 04:22:51;;;;;;;4.63;4.20;;;9.60;99.90;;;;;;5034814;28;20242;-49
2023/04/22 04:25:20;;;;;;;4.67;4.27;;;9.60;99.90;;;;;;5031529;28;20583;-45
2023/04/22 04:27:49;;;;;;;5.60;5.00;;;9.60;99.90;;;;;;5026329;28;20742;-42
2023/04/22 04:30:16;;;;;;;5.67;4.47;;;9.60;99.90;;;;;;5007932;28;20232;-46
2023/04/22 04:32:52;;;;;;;6.60;4.60;;;9.60;99.90;;;;;;5017168;28;20679;-47
2023/04/22 04:35:19;;;;;;;5.00;4.60;;;9.60;99.90;;;;;;5035389;28;20219;-46
2023/04/22 04:37:52;;;;;;;5.30;4.80;;;9.60;99.90;;;;;;5028469;28;20205;-48
2023/04/22 04:40:20;;;;;;;4.50;4.10;;;9.60;99.90;;;;;;5030442;28;20203;-42
2023/04/22 04:43:07;;;;;;;6.07;4.63;;;9.60;99.90;;;;;;5026339;28;20202;-46
2023/04/22 04:45:45;;;;;;;5.17;4.20;;;9.60;99.90;;;;;;5003929;28;24287;-45
2023/04/22 04:48:15;;;;;;;4.63;4.13;;;9.60;99.90;;;;;;5021671;28;20195;-64
2023/04/22 04:50:52;;;;;;;5.13;4.20;;;9.70;99.90;;;;;;5039471;28;20207;-65
2023/04/22 04:53:21;;;;;;;4.93;4.53;;;9.70;99.90;;;;;;5025581;28;20230;-64
2023/04/22 04:55:48;;;;;;;7.13;5.37;;;9.70;99.90;;;;;;5029719;28;20295;-65
2023/04/22 04:58:22;;;;;;;5.50;4.37;;;9.80;99.90;;;;;;5017405;28;20210;-64
2023/04/22 05:01:02;;;;;;;5.17;4.67;;;9.80;99.90;;;;;;5002068;28;20207;-65
2023/04/22 05:03:30;;;;;;;6.07;4.97;;;9.80;99.90;;;;;;5022130;28;20211;-65
2023/04/22 05:05:56;;;;;;;7.77;4.80;;;9.80;99.90;;;;;;5034564;28;20216;-65
2023/04/22 05:08:24;;;;;;;5.50;5.00;;;9.90;99.90;;;;;;5022158;28;20570;-66
2023/04/22 05:10:55;;;;;;;5.57;4.70;;;9.90;99.90;;;;;;5039036;28;20191;-67
2023/04/22 05:13:23;;;;;;;6.60;4.73;;;9.90;99.90;;;;;;5009520;28;20203;-65
2023/04/22 05:15:50;;;;;;;5.23;4.73;;;10.00;99.90;;;;;;5000977;28;20251;-66
2023/04/22 05:18:18;;;;;;;4.87;4.43;;;10.00;99.90;;;;;;5036187;28;20188;-66
2023/04/22 05:20:45;;;;;;;4.97;4.47;;;10.10;99.90;;;;;;5023227;28;20269;-66
2023/04/22 05:23:12;;;;;;;7.17;4.97;;;10.10;99.90;;;;;;5035442;28;20206;-66
2023/04/22 05:25:39;;;;;;;5.73;4.80;;;10.20;99.90;;;;;;5021751;28;20307;-66
2023/04/22 05:28:10;;;;;;;8.77;5.00;;;10.20;99.90;;;;;;5016373;28;20196;-64
2023/04/22 05:30:46;;;;;;;5.47;4.67;;;10.20;99.90;;;;;;5013804;28;21220;-63
2023/04/22 05:33:13;;;;;;;8.03;4.70;;;10.30;99.90;;;;;;5036658;28;20333;-61
2023/04/22 05:35:41;;;;;;;6.40;5.07;;;10.30;99.90;;;;;;5021516;28;20226;-64
2023/04/22 05:38:09;;;;;;;9.23;4.83;;;10.40;99.90;;;;;;5034982;28;20587;-64
2023/04/22 05:40:39;;;;;;;5.20;4.70;;;10.50;99.90;;;;;;5014506;28;23211;-66
2023/04/22 05:43:08;;;;;;;7.03;4.97;;;10.50;99.90;;;;;;5031246;28;20209;-65
2023/04/22 05:45:37;;;;;;;5.23;4.73;;;10.60;99.90;;;;;;5027247;28;20226;-65
2023/04/22 05:48:07;;;;;;;7.20;5.33;;;10.60;99.90;;;;;;5016417;28;20211;-64
2023/04/22 05:50:40;;;;;;;6.07;4.90;;;10.70;99.90;;;;;;5035715;28;20965;-65
2023/04/22 05:53:08;;;;;;;7.17;5.23;;;10.80;99.90;;;;;;5027914;28;20196;-64
2023/04/22 05:55:35;;;;;;;8.80;5.10;;;10.90;99.90;;;;;;5016585;28;20226;-65
2023/04/22 05:58:04;;;;;;;6.30;5.37;;;10.90;99.90;;;;;;5019856;28;20283;-65
2023/04/22 06:00:44;;;;;;;6.27;4.90;;;11.00;99.90;;;;;;5019820;28;20216;-66
2023/04/22 06:03:25;;;;;;;10.63;5.10;;;11.00;99.90;;;;;;5014177;28;20210;-40
2023/04/22 06:05:53;;;;;;;5.13;4.63;;;11.10;99.90;;;;;;5029955;28;20259;-43
2023/04/22 06:08:20;;;;;;;6.67;4.80;;;11.20;99.90;;;;;;5027818;28;20237;-40
2023/04/22 06:10:50;;;;;;;5.67;4.97;;;11.30;99.90;;;;;;5025987;28;20190;-42
2023/04/22 06:13:17;;;;;;;7.13;5.10;;;11.40;99.90;;;;;;5017512;28;20212;-44
2023/04/22 06:15:45;;;;;;;5.33;4.87;;;11.50;99.90;;;;;;5019882;28;20334;-41
2023/04/22 06:18:12;;;;;;;5.60;5.10;;;11.60;99.90;;;;;;5004075;28;20203;-40
2023/04/22 06:20:40;;;;;;;6.23;5.60;;;11.70;99.90;;;;;;5019065;28;20973;-41
2023/04/22 06:23:07;;;;;;;6.00;4.90;;;11.70;99.90;;;;;;5031512;28;20194;-42
2023/04/22 06:25:34;;;;;;;5.90;5.30;;;11.80;99.90;;;;;;5023317;28;20907;-42
2023/04/22 06:28:01;;;;;;;6.07;4.77;;;11.90;99.90;;;;;;5022492;28;20206;-42
2023/04/22 06:30:28;;;;;;;7.97;5.53;;;12.00;99.90;;;;;;5029611;28;20192;-43
2023/04/22 06:32:55;;;;;;;6.73;4.80;;;12.10;99.90;;;;;;5017598;28;20211;-44
2023/04/22 06:35:22;;;;;;;6.60;5.30;;;12.20;99.90;;;;;;5030452;28;20215;-43
2023/04/22 06:37:51;;;;;;;5.70;4.80;;;12.30;99.90;;;;;;5014805;28;20616;-41
2023/04/22 06:40:18;;;;;;;6.73;5.23;;;12.40;99.90;;;;;;5038267;28;20584;-41
2023/04/22 06:43:03;;;;;;;6.67;5.20;;;12.50;99.90;;;;;;5036246;28;20226;-41
2023/04/22 06:45:45;;;;;;;5.80;5.27;;;12.60;99.90;;;;;;5020959;28;20220;-42
2023/04/22 06:48:21;;;;;;;5.93;5.33;;;12.80;99.90;;;;;;4992080;28;20199;-43
2023/04/22 06:51:07;;;;;;;6.93;5.50;;;12.90;99.90;;;;;;5023487;28;20207;-42
2023/04/22 06:53:36;;;;;;;14.10;5.60;;;13.00;99.90;;;;;;5017282;28;20203;-41
2023/04/22 06:56:04;;;;;;;5.77;5.10;;;13.10;99.90;;;;;;5032375;28;20298;-41
2023/04/22 06:58:31;;;;;;;6.77;5.10;;;13.20;99.90;;;;;;5031034;28;20184;-41
2023/04/22 07:00:57;;;;;;;8.20;5.13;;;13.30;99.90;;;;;;5021349;28;20216;-43
2023/04/22 07:03:24;;;;;;;6.53;5.93;;;13.40;99.90;;;;;;5023192;28;20206;-41
2023/04/22 07:06:01;;;;;;;5.73;4.47;;;13.50;99.90;;;;;;5007781;28;20223;-46
2023/04/22 07:08:30;;;;;;;5.47;4.97;;;13.60;99.90;;;;;;5019857;28;21958;-40
2023/04/22 07:10:59;;;;;;;8.87;5.47;;;13.70;99.90;;;;;;5041303;28;20549;-45
2023/04/22 07:13:45;;;;;;;8.67;5.80;;;13.80;99.90;;;;;;5028952;28;20249;-40
2023/04/22 07:16:13;;;;;;;5.67;4.73;;;13.80;99.90;;;;;;5019776;28;20584;-46
2023/04/22 07:18:40;;;;;;;5.83;4.73;;;13.90;99.90;;;;;;5012251;28;20204;-43
2023/04/22 07:21:10;;;;;;;5.73;4.80;;;14.00;99.90;;;;;;5009352;28;20690;-41
2023/04/22 07:23:36;;;;;;;5.60;5.00;;;14.10;99.90;;;;;;5024293;28;21109;-41
2023/04/22 07:26:05;;;;;;;5.83;4.87;;;14.20;99.90;;;;;;5041012;28;20272;-43
2023/04/22 07:28:33;;;;;;;6.77;5.50;;;14.30;99.80;;;;;;5030795;28;20187;-40
2023/04/22 07:30:59;;;;;;;6.07;4.97;;;14.30;99.70;;;;;;5024928;28;20228;-43
2023/04/22 07:33:26;;;;;;;8.07;5.00;;;14.40;99.50;;;;;;5015363;28;20211;-43
2023/04/22 07:35:53;;;;;;;7.83;5.27;;;14.50;99.40;;;;;;5013356;28;21035;-41
2023/04/22 07:38:20;;;;;;;5.27;4.87;;;14.50;99.50;;;;;;5038704;28;20305;-41
2023/04/22 07:40:47;;;;;;;6.00;5.43;;;14.60;99.30;;;;;;5032382;28;20411;-42
2023/04/22 07:43:16;;;;;;;6.07;5.10;;;14.70;99.20;;;;;;5033909;28;20211;-42
2023/04/22 07:45:44;;;;;;;5.13;4.33;;;14.80;99.20;;;;;;5010354;28;21499;-41
2023/04/22 07:48:11;;;;;;;7.90;5.37;;;14.90;99.90;;;;;;5010912;28;20219;-41
2023/04/22 07:50:38;;;;;;;7.50;4.73;;;15.00;99.90;;;;;;5041926;28;20612;-40
2023/04/22 07:53:05;;;;;;;6.67;5.20;;;15.10;99.90;;;;;;5018665;28;20245;-46
2023/04/22 07:55:33;;;;;;;6.17;5.00;;;15.30;99.90;;;;;;5031039;28;20216;-41
2023/04/22 07:58:05;;;;;;;6.57;5.23;;;15.30;98.00;;;;;;5039473;28;20187;-46
2023/04/22 08:00:34;;;;;;;8.07;5.20;;;15.40;97.90;;;;;;5034215;28;20749;-41
2023/04/22 08:03:00;;;;;;;6.13;5.30;;;15.50;99.00;;;;;;5010663;28;20204;-43
2023/04/22 08:05:27;;;;;;;9.73;5.50;;;15.60;97.80;;;;;;5034636;28;20218;-43
2023/04/22 08:07:55;;;;;;;5.43;4.93;;;15.70;97.60;;;;;;5006638;28;20212;-40
2023/04/22 08:10:22;;;;;;;5.47;4.97;;;15.90;97.40;;;;;;5038162;28;20191;-46
2023/04/22 08:13:11;;;;;;;4.80;4.40;;;15.90;97.40;;;;;;5032381;28;20209;-43
2023/04/22 08:15:40;;;;;;;6.77;5.20;;;;;;;;;;5031482;28;20215;-42
2023/04/22 08:18:07;;;;;;;4.70;4.30;;;16.00;99.90;;;;;;5031241;28;20254;-44
2023/04/22 08:20:34;;;;;;;5.67;4.70;;;16.20;96.90;;;;;;5036628;28;20231;-43
2023/04/22 08:23:01;;;;;;;10.07;5.80;;;16.30;96.80;;;;;;5012783;28;20203;-43
2023/04/22 08:25:29;;;;;;;5.37;4.87;;;16.30;96.50;;;;;;5040234;28;20306;-43
2023/04/22 08:27:57;;;;;;;6.60;4.87;;;16.40;96.30;;;;;;5012693;28;20743;-43
2023/04/22 08:30:24;;;;;;;7.97;5.30;;;16.40;96.00;;;;;;5041244;28;20217;-43
2023/04/22 08:32:52;;;;;;;9.70;5.73;;;16.50;95.80;;;;;;5035408;28;20211;-42
2023/04/22 08:35:20;;;;;;;8.23;4.73;;;16.50;95.80;;;;;;5027645;28;20231;-41
2023/04/22 08:37:47;;;;;;;6.83;4.93;;;16.60;95.60;;;;;;5013269;28;20219;-41
2023/04/22 08:40:14;;;;;;;8.93;5.07;;;16.60;95.70;;;;;;5037729;28;20207;-42
2023/04/22 08:42:41;;;;;;;6.70;5.07;;;16.70;95.70;;;;;;5019914;28;20203;-41
2023/04/22 08:45:13;;;;;;;5.00;4.60;;;16.90;95.60;;;;;;5034909;28;20234;-41
2023/04/22 08:47:41;;;;;;;5.10;4.60;;;16.90;95.60;;;;;;5028214;28;20207;-42
2023/04/22 08:50:10;;;;;;;9.97;4.97;;;17.00;95.50;;;;;;5023977;28;20191;-45
2023/04/22 08:52:37;;;;;;;8.30;5.03;;;17.10;95.60;;;;;;5025198;28;20238;-42
2023/04/22 08:55:06;;;;;;;6.60;4.90;;;17.30;95.30;;;;;;5015652;28;20929;-44
2023/04/22 08:57:34;;;;;;;6.27;5.20;;;17.40;95.40;;;;;;5031868;28;20192;-44
2023/04/22 09:00:01;;;;;;;6.47;4.57;;;17.50;95.30;;;;;;5023349;28;20203;-44
2023/04/22 09:02:31;;;;;;;4.70;4.33;;;17.60;95.30;;;;;;5031163;28;20192;-43
2023/04/22 09:05:01;;;;;;;5.10;4.33;;;17.40;94.80;;;;;;5031853;28;20211;-46
2023/04/22 09:07:34;;;;;;;6.10;5.03;;;17.40;99.60;;;;;;5028490;28;20258;-43
2023/04/22 09:10:01;;;;;;;9.33;4.87;;;17.40;98.50;;;;;;5001956;28;20232;-44
2023/04/22 09:12:28;;;;;;;8.70;4.53;;;17.30;99.90;;;;;;5025390;28;20192;-44
2023/04/22 09:14:56;;;;;;;5.17;4.60;;;17.50;99.40;;;;;;5029421;28;20305;-41
2023/04/22 09:17:30;;;;;;;7.07;4.80;;;17.50;98.60;;;;;;5031206;28;20191;-42
2023/04/22 09:19:58;;;;;;;5.77;4.80;;;17.70;97.60;;;;;;5029877;28;20294;-44
2023/04/22 09:22:27;;;;;;;4.90;4.50;;;17.80;96.60;;;;;;5027451;28;20199;-41
2023/04/22 09:24:55;;;;;;;6.17;4.50;;;17.90;98.30;;;;;;5004324;28;20222;-44
2023/04/22 09:27:25;;;;;;;6.47;4.33;;;18.00;99.90;;;;;;5032777;28;20551;-43
2023/04/22 09:29:52;;;;;;;4.60;4.20;;;18.10;99.90;;;;;;5029281;28;20213;-41
2023/04/22 09:32:19;;;;;;;5.30;4.80;;;18.20;94.50;;;;;;5034766;28;20279;-47
2023/04/22 09:34:50;;;;;;;4.00;3.70;;;18.40;94.70;;;;;;5023482;28;20714;-41
2023/04/22 09:37:20;;;;;;;5.87;4.30;;;18.50;94.20;;;;;;5023201;28;20192;-41
2023/04/22 09:39:48;;;;;;;4.13;3.83;;;18.60;93.70;;;;;;5000970;28;20715;-46
2023/04/22 09:42:17;;;;;;;4.40;4.00;;;18.60;93.40;;;;;;5037776;28;20297;-43
2023/04/22 09:44:46;;;;;;;4.87;4.23;;;18.70;93.30;;;;;;5028639;28;20227;-41
2023/04/22 09:47:13;;;;;;;4.83;4.43;;;18.70;93.10;;;;;;5040085;28;20310;-44
2023/04/22 09:49:40;;;;;;;5.13;4.03;;;18.80;93.40;;;;;;5029157;28;20653;-45
2023/04/22 09:52:07;;;;;;;5.13;3.70;;;18.90;93.30;;;;;;5028065;28;20281;-42
2023/04/22 09:54:36;;;;;;;7.27;4.40;;;18.90;92.90;;;;;;5027747;28;20227;-41
2023/04/22 09:57:04;;;;;;;5.03;4.50;;;18.90;92.60;;;;;;5021450;28;20192;-41
2023/04/22 09:59:32;;;;;;;4.53;4.13;;;18.90;92.60;;;;;;5032104;28;20239;-43
2023/04/22 10:02:02;;;;;;;6.20;4.17;;;19.00;92.70;;;;;;5032474;28;20270;-42
2023/04/22 10:04:30;;;;;;;6.67;3.90;;;19.00;92.70;;;;;;5018587;28;20707;-40
2023/04/22 10:06:57;;;;;;;4.77;3.83;;;19.10;92.40;;;;;;5009897;28;20213;-43
2023/04/22 10:09:25;;;;;;;6.83;4.50;;;;;;;;;;5018368;28;20196;-47
2023/04/22 10:11:54;;;;;;;6.17;4.40;;;19.20;92.00;;;;;;5008629;28;20283;-42
2023/04/22 10:14:21;;;;;;;5.77;3.73;;;19.30;92.20;;;;;;5028413;28;20226;-40
2023/04/22 10:16:53;;;;;;;4.50;3.60;;;19.40;92.50;;;;;;5038889;28;20203;-39
2023/04/22 10:19:23;;;;;;;5.37;4.07;;;19.60;91.50;;;;;;5016402;28;20761;-40
2023/04/22 10:21:54;;;;;;;4.63;3.97;;;19.60;91.90;;;;;;5030547;28;20222;-38
2023/04/22 10:24:21;;;;;;;5.37;4.13;;;19.70;91.60;;;;;;5029567;28;20223;-39
2023/04/22 10:26:50;;;;;;;5.17;3.60;;;19.80;91.00;;;;;;5012072;28;20221;-41
2023/04/22 10:29:19;;;;;;;4.43;4.13;;;19.80;91.20;;;;;;5036901;28;20267;-41
2023/04/22 10:31:55;;;;;;;4.60;4.17;;;19.90;90.90;;;;;;5020843;28;20947;-41
2023/04/22 10:34:25;;;;;;;4.93;3.60;;;20.00;90.70;;;;;;5030679;28;20280;-44
2023/04/22 10:37:00;;;;;;;4.90;4.40;;;20.30;99.90;;;;;;5025149;28;20195;-39
2023/04/22 10:39:29;;;;;;;4.43;3.30;;;20.20;99.90;;;;;;5034203;28;20191;-43
2023/04/22 10:42:05;;;;;;;4.43;3.63;;;20.30;98.30;;;;;;5006616;28;20298;-39
2023/04/22 10:44:47;;;;;;;5.03;3.90;;;20.30;90.10;;;;;;5038080;28;20280;-40
2023/04/22 10:47:26;;;;;;;4.63;3.33;;;20.40;88.60;;;;;;5020922;28;20283;-43
2023/04/22 10:50:10;;;;;;;4.13;3.10;;;20.40;88.40;;;;;;5030377;28;20195;-41
2023/04/22 10:52:36;;;;;;;3.67;3.30;;;20.40;87.20;;;;;;5036713;28;20203;-44
2023/04/22 10:55:03;;;;;;;4.50;3.10;;;20.60;89.20;;;;;;5030735;28;20283;-42
2023/04/22 10:57:38;;;;;;;4.93;4.10;;;20.50;88.20;;;;;;5021689;28;20253;-41
2023/04/22 11:00:40;;;;;;;3.93;3.57;;;20.60;88.40;;;;;;5012311;28;20211;-40
2023/04/22 11:03:24;;;;;;;4.80;3.47;;;20.60;87.00;;;;;;5029407;28;20253;-45
2023/04/22 11:06:15;;;;;;;5.07;3.47;;;20.70;88.20;;;;;;5030424;28;20302;-39
2023/04/22 11:08:45;;;;;;;3.63;3.33;;;20.80;89.00;;;;;;5025057;28;20273;-39
2023/04/22 11:11:13;;;;;;;5.20;3.27;;;20.90;87.30;;;;;;5036688;28;20971;-41
2023/04/22 11:13:42;;;;;;;5.37;3.13;;;20.90;86.60;;;;;;5005125;28;20203;-40
2023/04/22 11:16:10;;;;;;;3.73;3.40;;;20.80;85.70;;;;;;5029089;28;20186;-42
2023/04/22 11:18:38;;;;;;;6.30;3.57;;;20.90;85.90;;;;;;5029437;28;20200;-41
2023/04/22 11:21:07;;;;;;;4.60;3.20;;;21.00;86.70;;;;;;5030608;28;20223;-41
2023/04/22 11:23:35;;;;;;;3.30;3.10;;;;;;;;;;5036424;28;20204;-43
2023/04/22 11:26:07;;;;;;;4.53;3.10;;;;;;;;;;5032118;28;20219;-42
2023/04/22 11:28:38;;;;;;;3.63;3.33;;;;;;;;;;5026348;28;20212;-43
2023/04/22 11:31:09;;;;;;;4.97;3.37;;;;;;;;;;5012915;28;20207;-42
2023/04/22 11:33:42;;;;;;;3.63;3.40;;;;;;;;;;5029741;28;20203;-45
2023/04/22 11:36:11;;;;;;;3.40;3.20;;;;;;;;;;5036364;28;20235;-48
2023/04/22 11:38:38;;;;;;;5.00;3.83;;;21.50;99.90;;;;;;5034265;28;20207;-41
2023/04/22 11:41:05;;;;;;;5.05;3.50;;;21.50;99.90;;;;;;5018732;28;20920;-41
2023/04/22 11:43:33;;;;;;;4.47;3.23;;;21.60;83.30;;;;;;5019502;28;20294;-44
2023/04/22 11:45:59;;;;;;;4.00;3.60;;;21.70;82.60;;;;;;5012056;28;20228;-40
2023/04/22 11:48:26;;;;;;;3.90;3.40;;;21.60;82.30;;;;;;5028942;28;20200;-42
2023/04/22 11:51:10;;;;;;;4.50;3.37;;;21.60;82.50;;;;;;5036211;28;20192;-41
2023/04/22 11:53:38;;;;;;;3.80;3.47;;;21.70;79.30;;;;;;5028312;28;20234;-40
2023/04/22 11:56:05;;;;;;;3.67;3.30;;;21.60;81.40;;;;;;5025546;28;20292;-40
2023/04/22 11:58:32;;;;;;;3.83;3.30;;;21.70;82.60;;;;;;5028895;28;20203;-42
2023/04/22 12:00:59;;;;;;;3.88;3.35;;;21.90;81.60;;;;;;5014742;28;22992;-44
2023/04/22 12:03:28;;;;;;;4.63;3.47;;;22.00;81.80;;;;;;5038223;28;20190;-42
2023/04/22 12:05:57;;;;;;;3.47;3.17;;;22.00;83.10;;;;;;5032236;28;20227;-40
2023/04/22 12:08:30;;;;;;;3.38;3.17;;;22.00;81.70;;;;;;5033340;28;20270;-42
2023/04/22 12:11:02;;;;;;;5.97;3.40;;;22.10;81.80;;;;;;5018703;28;20187;-45
2023/04/22 12:13:31;;;;;;;3.40;3.20;;;22.10;80.40;;;;;;5027700;28;20295;-45
2023/04/22 12:16:00;;;;;;;3.40;3.20;;;22.20;81.10;;;;;;5024797;28;20203;-43
2023/04/22 12:18:29;;;;;;;3.85;3.55;;;22.30;80.60;;;;;;5019062;28;20211;-42
2023/04/22 12:20:59;;;;;;;4.05;3.75;;;22.40;80.60;;;;;;5022164;28;20223;-39
2023/04/22 12:23:27;;;;;;;4.00;3.30;;;22.40;78.70;;;;;;5029504;28;20235;-41
2023/04/22 12:25:54;;;;;;;3.85;3.50;;;22.50;78.70;;;;;;5027119;28;20235;-42
2023/04/22 12:28:21;;;;;;;3.67;3.38;;;22.60;78.40;;;;;;5037302;28;20670;-41
2023/04/22 12:30:48;;;;;;;3.15;2.95;;;22.70;78.20;;;;;;5022404;28;20211;-40
2023/04/22 12:33:15;;;;;;;5.35;3.20;;;22.80;77.30;;;;;;5020912;28;20219;-45
2023/04/22 12:35:42;;;;;;;3.80;3.50;;;22.90;78.20;;;;;;5022317;28;20297;-42
2023/04/22 12:38:09;;;;;;;3.63;3.33;;;22.90;77.50;;;;;;5033090;28;20189;-43
2023/04/22 12:40:38;;;;;;;3.70;3.40;;;23.00;78.80;;;;;;5027454;28;20262;-43
2023/04/22 12:43:05;;;;;;;3.80;3.40;;;23.00;77.60;;;;;;5010294;28;20298;-41
2023/04/22 12:45:32;;;;;;;4.50;3.30;;;23.00;77.70;;;;;;5025874;28;20223;-43
2023/04/22 12:47:59;;;;;;;3.30;3.10;;;23.10;76.40;;;;;;5017787;28;21334;-45
2023/04/22 12:50:26;;;;;;;4.60;3.63;;;23.20;75.90;;;;;;5031468;28;20187;-42
2023/04/22 12:52:54;;;;;;;3.92;3.20;;;23.20;75.10;;;;;;5008730;28;20868;-44
2023/04/22 12:55:21;;;;;;;3.70;3.40;;;23.20;74.90;;;;;;5032080;28;20223;-43
2023/04/22 12:57:50;;;;;;;6.85;3.50;;;23.40;74.00;;;;;;5031088;28;20214;-42
2023/04/22 13:00:17;;;;;;;4.50;3.30;;;23.60;74.40;;;;;;5040961;28;20199;-42
2023/04/22 13:02:45;;;;;;;3.50;3.20;;;23.60;73.80;;;;;;5014956;28;20640;-43